Alejskaja, Russia
Current Conditions -  °F | °C
As of 4:30 AM on Thursday 23 Oct 2014 (Local Time) from UNBB Reporting Station
Broken Clouds Broken Clouds  
Wind Chill: 27°   Ceiling: 10000
Heat Index: 34°   Visibility: 6mi
Dew Point: 32°   Wind: 9mph
Humidity: 93%   Direction: 200°SSW
Pressure: 30"   Gusts: NA
Location:  52.52°N, 82.77°E
Report Text: UNBB 222130Z 20004MPS 9999 SCT040 BKN100 01/00 Q1016 NOSIG RMKQFE740/0986 24190058
Loading
Personal Weather Stations






























Interactive Weather Map
Tropical Storm Tracking
New forecast layout! Learn more

10-Day Weather Forecast

Advertisements
Track Severe Weather on mobile